UAL5249 KSFO-KLAX
Flight info
| Callsign | UAL5249 |
|---|---|
| Flight time | N/A |
| Altitude | 37000 |
| Route | WESLA5 SUSEY EBAYE BURGL IRNMN2 |
| Aircraft | B38M/M-SDE1FGHILORVWXY/HB1 |
Departure
| Time | 2026-04-30 22:39 |
|---|---|
| Airport | San Francisco International Airport (KSFO) |
Arrival
| Time | N/A |
|---|---|
| Airport | Los Angeles International Airport (KLAX) |
| Time | Latitude | Longitude | Altitude | Speed | Heading |
|---|---|---|---|---|---|
| 2026-04-30 22:26 | 37.61838 | -122.38206 | 22 ft | 0 kts | 140° |
| 2026-04-30 22:31 | 37.61852 | -122.38222 | 20 ft | 2 kts | 139° |
| 2026-04-30 22:32 | 37.61855 | -122.38269 | 20 ft | 1 kts | 38° |
| 2026-04-30 22:32 | 37.61852 | -122.38271 | 20 ft | 0 kts | 36° |
| 2026-04-30 22:35 | 37.61865 | -122.38260 | 20 ft | 6 kts | 33° |
| 2026-04-30 22:36 | 37.61849 | -122.37921 | 24 ft | 27 kts | 117° |
| 2026-04-30 22:36 | 37.61772 | -122.37680 | 22 ft | 31 kts | 110° |
| 2026-04-30 22:37 | 37.61444 | -122.36897 | 23 ft | 37 kts | 131° |
| 2026-04-30 22:37 | 37.61298 | -122.36619 | 19 ft | 39 kts | 118° |
| 2026-04-30 22:37 | 37.61052 | -122.36017 | 21 ft | 30 kts | 103° |
| 2026-04-30 22:38 | 37.61250 | -122.36032 | 18 ft | 31 kts | 298° |
| 2026-04-30 22:38 | 37.61972 | -122.37710 | 554 ft | 150 kts | 297° |
| 2026-04-30 22:39 | 37.62516 | -122.38910 | 1336 ft | 162 kts | 299° |
| 2026-04-30 22:39 | 37.63513 | -122.41233 | 2465 ft | 169 kts | 297° |
| 2026-04-30 22:40 | 37.65773 | -122.46487 | 4066 ft | 241 kts | 299° |
| 2026-04-30 22:41 | 37.66575 | -122.51762 | 6168 ft | 271 kts | 245° |
| 2026-04-30 22:41 | 37.64397 | -122.54148 | 7500 ft | 282 kts | 194° |
| 2026-04-30 22:42 | 37.57596 | -122.51675 | 10346 ft | 315 kts | 157° |
| 2026-04-30 22:43 | 37.53294 | -122.49593 | 11522 ft | 341 kts | 158° |
| 2026-04-30 22:43 | 37.48877 | -122.47116 | 13019 ft | 353 kts | 142° |
| 2026-04-30 22:44 | 37.45406 | -122.42642 | 14478 ft | 363 kts | 130° |
| 2026-04-30 22:45 | 37.38358 | -122.33017 | 17274 ft | 384 kts | 131° |
| 2026-04-30 22:45 | 37.34715 | -122.28049 | 18597 ft | 394 kts | 131° |
| 2026-04-30 22:46 | 37.30939 | -122.22944 | 19796 ft | 402 kts | 131° |
| 2026-04-30 22:47 | 37.24065 | -122.13646 | 21894 ft | 416 kts | 131° |
| 2026-04-30 22:47 | 37.20087 | -122.08281 | 23063 ft | 423 kts | 132° |
| 2026-04-30 22:48 | 37.16029 | -122.02816 | 24069 ft | 432 kts | 132° |
| 2026-04-30 22:49 | 37.10736 | -121.95701 | 25220 ft | 441 kts | 132° |
| 2026-04-30 22:49 | 37.04371 | -121.87167 | 26517 ft | 452 kts | 133° |
| 2026-04-30 22:50 | 36.95640 | -121.75498 | 28156 ft | 466 kts | 133° |
| 2026-04-30 22:51 | 36.91174 | -121.69545 | 28960 ft | 472 kts | 133° |
| 2026-04-30 22:51 | 36.86684 | -121.63570 | 29903 ft | 475 kts | 133° |
| 2026-04-30 22:52 | 36.84419 | -121.60560 | 30342 ft | 475 kts | 133° |
| 2026-04-30 22:52 | 36.81628 | -121.56856 | 30857 ft | 475 kts | 133° |
| 2026-04-30 22:53 | 36.77090 | -121.50842 | 31745 ft | 476 kts | 133° |
| 2026-04-30 22:53 | 36.72544 | -121.44827 | 32559 ft | 476 kts | 134° |
| 2026-04-30 22:53 | 36.70267 | -121.41821 | 32968 ft | 477 kts | 134° |
| 2026-04-30 22:54 | 36.65743 | -121.35851 | 33754 ft | 477 kts | 134° |
| 2026-04-30 22:55 | 36.58902 | -121.26848 | 34864 ft | 477 kts | 134° |
| 2026-04-30 22:55 | 36.54337 | -121.20852 | 35589 ft | 476 kts | 134° |
| 2026-04-30 22:56 | 36.49782 | -121.14882 | 36241 ft | 476 kts | 134° |
| 2026-04-30 22:56 | 36.42966 | -121.05932 | 36980 ft | 472 kts | 131° |
| 2026-04-30 22:57 | 36.38717 | -120.99799 | 36989 ft | 467 kts | 132° |
| 2026-04-30 22:58 | 36.30185 | -120.87555 | 36992 ft | 469 kts | 132° |
| 2026-04-30 22:59 | 36.17364 | -120.69241 | 36976 ft | 469 kts | 132° |